CheckWX is a tool to help pilots better visualize weather data.  It is not intended as a substitute for an official pre-flight weather briefing.

05:08:03 UTC

LKMT METAR
Ostrava Leos Janáček Airport
Ostrava, Czech Republic
Current

38 mins ago

LKMT 180430Z 23003KT CAVOK 17/15 Q1013 NOSIG
Observed
Aug-18 @ 04:30 UTC
Wind
  • 230° at 3 KTS
Visibility
10,000+ meters
Flight Rules
VFR
Cloud Levels
  • Clear skies
Temperature
17°C / 63°F
Dewpoint
15°C / 59°F
Humidity
88%
Altimeter
29.91" Hg
Pressure
1012.92 hPa
Previous

1 hour ago

LKMT 180400Z 22004KT CAVOK 17/15 Q1013 NOSIG
Observed
Aug-18 @ 04:00 UTC
Wind
  • 220° at 4 KTS
Visibility
10,000+ meters
Flight Rules
VFR
Cloud Levels
  • Clear skies
Temperature
17°C / 63°F
Dewpoint
15°C / 59°F
Humidity
88%
Altimeter
29.91" Hg
Pressure
1012.92 hPa
Previous

2 hours ago

LKMT 180330Z 22003KT CAVOK 17/15 Q1013 NOSIG
Observed
Aug-18 @ 03:30 UTC
Wind
  • 220° at 3 KTS
Visibility
10,000+ meters
Flight Rules
VFR
Cloud Levels
  • Clear skies
Temperature
17°C / 63°F
Dewpoint
15°C / 59°F
Humidity
88%
Altimeter
29.91" Hg
Pressure
1012.92 hPa